EFTP/TMP METAR and TAF weather

Enter ICAO airport designator
Station Type Date Time Source
EFTP METAR 2019/02/23 02:20 UTC NOAA

EFTP 230220Z AUTO 25015KT 9999 SCT006 OVC008 M02/M03 Q1028


Station Type Date Time Source
EFTP Decoded METAR 2019/02/23 02:20 UTC NOAA

Tampere / Pirkkala, Finland (EFTP) 61-25N 023-35E 112M
Feb 22, 2019 - 09:20 PM EST / 2019.02.23 0220 UTC
Wind: from the WSW (250 degrees) at 17 MPH (15 KT):0
Visibility: greater than 7 mile(s):0
Sky conditions: overcast
Temperature: 28 F (-2 C)
Windchill: 15 F (-9 C):1
Dew Point: 26 F (-3 C)
Relative Humidity: 92%
Pressure (altimeter): 30.36 in. Hg (1028 hPa)
ob: EFTP 230220Z AUTO 25015KT 9999 SCT006 OVC008 M02/M03 Q1028
cycle: 2

Station Type Date Time Source
EFTP TAF 2019/02/23 03:42 UTC NOAA

TAF EFTP 230235Z 2303/2403 24014KT 9999 OVC008
BECMG 2303/2305 4000 BR
TEMPO 2305/2309 2000 BR BKN004
BECMG 2309/2311 9999 NSW FEW005 PROB30 2315/2403 0500 FG VV002


Example: see airport list